createdAt,value
2022-08-09T00:00:12.041Z,1.33
2022-08-09T00:02:43.080Z,1.57
2022-08-09T00:06:17.977Z,1.20
2022-08-09T00:08:12.925Z,1.30
2022-08-09T00:10:59.490Z,1.20
2022-08-09T00:13:31.628Z,1.40
2022-08-09T00:16:02.495Z,1.30
2022-08-09T00:18:34.793Z,1.30
2022-08-09T00:21:07.888Z,1.30
2022-08-09T00:23:56.195Z,1.50
2022-08-09T00:26:32.745Z,1.43
2022-08-09T00:29:02.507Z,1.57
2022-08-09T00:32:00.020Z,1.37
2022-08-09T00:34:19.987Z,1.50
2022-08-09T00:36:50.764Z,1.60
2022-08-09T00:40:14.006Z,1.43
2022-08-09T00:44:11.267Z,1.40
2022-08-09T00:44:59.426Z,1.37
2022-08-09T00:47:35.890Z,1.40
2022-08-09T00:50:14.611Z,1.30
2022-08-09T00:52:45.203Z,1.60
2022-08-09T00:55:32.612Z,1.30
2022-08-09T00:58:02.382Z,1.30
2022-08-09T01:00:35.213Z,1.50
2022-08-09T01:03:09.851Z,1.40
2022-08-09T01:05:53.260Z,1.30
2022-08-09T01:08:28.990Z,1.60
2022-08-09T01:11:04.133Z,1.60
2022-08-09T01:13:58.779Z,1.70
2022-08-09T01:16:31.749Z,1.50
2022-08-09T01:19:04.361Z,1.67
2022-08-09T01:21:41.352Z,1.60
2022-08-09T01:24:21.789Z,1.70
2022-08-09T01:27:01.745Z,2.03
2022-08-09T01:29:41.003Z,1.60
2022-08-09T01:32:33.579Z,1.90
2022-08-09T01:35:07.255Z,1.73
2022-08-09T01:38:07.730Z,1.90
2022-08-09T01:40:42.878Z,1.60
2022-08-09T01:43:13.636Z,1.90
2022-08-09T01:45:46.251Z,1.80
2022-08-09T01:48:17.348Z,2.03
2022-08-09T01:50:48.353Z,1.70
2022-08-09T01:53:19.419Z,1.70
2022-08-09T01:55:49.701Z,1.93
2022-08-09T01:58:23.892Z,1.80
2022-08-09T02:00:53.445Z,2.03
2022-08-09T02:03:22.513Z,2.00
2022-08-09T02:06:03.528Z,2.13
2022-08-09T02:08:57.289Z,1.90
2022-08-09T02:11:24.259Z,2.13
2022-08-09T02:14:06.316Z,2.10
2022-08-09T02:16:59.389Z,2.00
2022-08-09T02:19:38.559Z,1.83
2022-08-09T02:22:13.979Z,2.00
2022-08-09T02:24:46.313Z,2.00
2022-08-09T02:27:27.464Z,1.90
2022-08-09T02:30:12.821Z,2.33
2022-08-09T02:32:46.184Z,2.43
2022-08-09T02:35:23.106Z,1.83
2022-08-09T02:38:08.745Z,2.30
2022-08-09T02:40:38.589Z,2.30
2022-08-09T02:43:08.873Z,2.00
2022-08-09T02:45:43.960Z,2.10
2022-08-09T02:48:19.591Z,2.20
2022-08-09T02:51:01.669Z,2.23
2022-08-09T02:53:34.398Z,2.37
2022-08-09T02:56:04.252Z,2.30
2022-08-09T02:58:37.663Z,2.27
2022-08-09T03:01:11.048Z,2.60
2022-08-09T03:04:17.231Z,2.67
2022-08-09T03:06:30.419Z,2.80
2022-08-09T03:08:59.513Z,2.50
2022-08-09T03:12:11.124Z,2.20
2022-08-09T03:14:19.489Z,2.63
2022-08-09T03:16:52.068Z,2.13
2022-08-09T03:19:58.002Z,2.30
2022-08-09T03:22:12.535Z,2.20
2022-08-09T03:25:06.512Z,2.23
2022-08-09T03:27:45.809Z,2.23
2022-08-09T03:30:30.145Z,2.70
2022-08-09T03:33:16.951Z,2.97
2022-08-09T03:36:13.845Z,2.97
2022-08-09T03:38:41.786Z,2.23
2022-08-09T03:41:15.490Z,2.60
2022-08-09T03:44:03.816Z,2.43
2022-08-09T03:46:33.855Z,2.90
2022-08-09T03:49:08.473Z,2.67
2022-08-09T03:51:54.207Z,2.43
2022-08-09T03:54:29.425Z,2.63
2022-08-09T03:56:59.122Z,3.20
2022-08-09T03:59:43.197Z,3.00
2022-08-09T04:02:19.909Z,3.57
2022-08-09T04:04:58.467Z,2.90
2022-08-09T04:07:33.761Z,2.80
2022-08-09T04:10:20.398Z,2.80
2022-08-09T04:12:51.063Z,2.80
2022-08-09T04:15:52.528Z,3.13
2022-08-09T04:18:09.753Z,2.90
2022-08-09T04:20:47.904Z,2.80
2022-08-09T04:23:17.725Z,3.43
2022-08-09T04:25:51.935Z,3.47
2022-08-09T04:28:33.243Z,3.00
2022-08-09T04:31:08.380Z,3.67
2022-08-09T04:33:51.452Z,3.03
2022-08-09T04:36:25.142Z,2.97
2022-08-09T04:38:53.979Z,2.57
2022-08-09T04:41:23.338Z,2.50
2022-08-09T04:44:04.873Z,2.50
2022-08-09T04:46:36.476Z,2.57
2022-08-09T04:49:40.616Z,2.47
2022-08-09T04:52:21.830Z,2.13
2022-08-09T04:55:02.002Z,2.47
2022-08-09T04:57:53.845Z,2.40
2022-08-09T05:00:22.238Z,2.37
2022-08-09T05:02:52.839Z,2.20
2022-08-09T05:05:31.484Z,2.30
2022-08-09T05:08:14.821Z,2.43
2022-08-09T05:10:44.521Z,2.47
2022-08-09T05:13:14.319Z,2.27
2022-08-09T05:15:52.359Z,2.53
2022-08-09T05:18:39.103Z,2.70
2022-08-09T05:21:24.671Z,2.43
2022-08-09T05:24:01.941Z,3.00
2022-08-09T05:26:36.715Z,2.53
2022-08-09T05:29:17.663Z,3.07
2022-08-09T05:31:56.145Z,2.50
2022-08-09T05:34:31.485Z,2.60
2022-08-09T05:37:05.017Z,2.30
2022-08-09T05:39:43.223Z,2.60
2022-08-09T05:42:17.757Z,2.43
2022-08-09T05:44:51.635Z,2.67
2022-08-09T05:47:21.525Z,2.80
2022-08-09T05:50:23.611Z,2.47
2022-08-09T05:52:40.413Z,3.53
2022-08-09T05:55:20.536Z,3.67
2022-08-09T05:57:56.627Z,3.40
2022-08-09T06:00:28.741Z,3.43
2022-08-09T06:02:58.111Z,2.80
2022-08-09T06:05:49.766Z,2.87
2022-08-09T06:08:19.855Z,2.90
2022-08-09T06:10:56.005Z,3.07
2022-08-09T06:13:25.384Z,3.10
2022-08-09T06:15:57.162Z,2.87
2022-08-09T06:18:28.551Z,3.40
2022-08-09T06:20:58.439Z,3.27
2022-08-09T06:23:58.820Z,2.93
2022-08-09T06:26:21.020Z,3.10
2022-08-09T06:29:00.035Z,3.43
2022-08-09T06:31:39.629Z,3.37
2022-08-09T06:34:23.404Z,2.90
2022-08-09T06:36:59.289Z,2.97
2022-08-09T06:39:48.422Z,3.03
2022-08-09T06:42:20.104Z,3.20
2022-08-09T06:44:54.239Z,3.67
2022-08-09T06:47:24.037Z,3.10
2022-08-09T06:50:14.409Z,2.97
2022-08-09T06:52:47.001Z,3.27
2022-08-09T06:55:17.716Z,3.43
2022-08-09T06:58:03.503Z,3.10
2022-08-09T07:00:52.249Z,3.33
2022-08-09T07:03:28.591Z,3.10
2022-08-09T07:06:04.058Z,3.03
2022-08-09T07:08:36.971Z,3.30
2022-08-09T07:11:06.858Z,3.23
2022-08-09T07:14:04.012Z,3.27
2022-08-09T07:16:41.315Z,3.00
2022-08-09T07:19:15.687Z,2.97
2022-08-09T07:21:55.750Z,3.20
2022-08-09T07:24:32.896Z,2.87
2022-08-09T07:27:11.117Z,2.73
2022-08-09T07:29:58.576Z,3.00
2022-08-09T07:32:33.268Z,2.60
2022-08-09T07:35:10.741Z,3.37
2022-08-09T07:37:44.358Z,2.90
2022-08-09T07:40:16.615Z,3.57
2022-08-09T07:42:50.532Z,3.07
2022-08-09T07:45:37.926Z,2.87
2022-08-09T07:48:28.763Z,2.70
2022-08-09T07:51:10.096Z,2.63
2022-08-09T07:54:05.043Z,2.93
2022-08-09T07:56:49.807Z,3.07
2022-08-09T07:59:33.749Z,2.70
2022-08-09T08:02:05.251Z,2.60
2022-08-09T08:04:34.245Z,2.60
2022-08-09T08:07:14.853Z,2.53
2022-08-09T08:09:55.241Z,2.43
2022-08-09T08:12:42.666Z,2.43
2022-08-09T08:15:13.852Z,2.27
2022-08-09T08:17:52.941Z,2.90
2022-08-09T08:20:28.931Z,2.80
2022-08-09T08:23:03.557Z,3.10
2022-08-09T08:25:49.760Z,2.63
2022-08-09T08:28:25.653Z,2.63
2022-08-09T08:31:06.098Z,2.70
2022-08-09T08:33:53.058Z,2.93
2022-08-09T08:36:29.813Z,2.80
2022-08-09T08:39:00.314Z,2.83
2022-08-09T08:41:51.070Z,2.87
2022-08-09T08:44:27.421Z,2.43
2022-08-09T08:47:02.235Z,2.60
2022-08-09T08:49:46.503Z,3.20
2022-08-09T08:52:59.682Z,2.83
2022-08-09T08:55:15.352Z,2.73
2022-08-09T08:57:57.148Z,2.57
2022-08-09T09:00:30.546Z,2.93
2022-08-09T09:03:08.675Z,5.77
2022-08-09T09:06:01.233Z,2.40
2022-08-09T09:08:37.931Z,2.33
2022-08-09T09:11:17.376Z,2.40
2022-08-09T09:13:56.971Z,2.60
2022-08-09T09:16:30.572Z,2.80
2022-08-09T09:19:36.843Z,3.20
2022-08-09T09:22:05.479Z,2.70
2022-08-09T09:24:38.869Z,3.20
2022-08-09T09:27:09.524Z,2.83
2022-08-09T09:30:10.608Z,3.67
2022-08-09T09:32:44.770Z,2.90
2022-08-09T09:35:17.743Z,3.30
2022-08-09T09:37:48.078Z,3.20
2022-08-09T09:40:17.731Z,3.03
2022-08-09T09:42:56.700Z,2.73
2022-08-09T09:45:30.862Z,2.77
2022-08-09T09:48:05.031Z,2.83
2022-08-09T09:50:51.254Z,3.10
2022-08-09T09:53:43.673Z,2.80
2022-08-09T09:56:31.146Z,2.70
2022-08-09T09:59:02.859Z,2.50
2022-08-09T10:01:37.966Z,2.93
2022-08-09T10:04:16.329Z,3.00
2022-08-09T10:06:54.478Z,2.60
2022-08-09T10:09:24.558Z,2.60
2022-08-09T10:12:07.742Z,3.40
2022-08-09T10:14:47.894Z,2.70
2022-08-09T10:17:39.111Z,2.70
2022-08-09T10:20:14.998Z,2.73
2022-08-09T10:22:44.294Z,2.70
2022-08-09T10:25:15.382Z,2.77
2022-08-09T10:27:56.871Z,3.00
2022-08-09T10:34:07.910Z,2.60
2022-08-09T10:36:05.844Z,3.23
2022-08-09T10:38:57.132Z,2.60
2022-08-09T10:41:29.928Z,2.63
2022-08-09T10:44:01.769Z,2.57
2022-08-09T10:46:54.229Z,2.10
2022-08-09T10:49:50.079Z,2.70
2022-08-09T10:52:20.276Z,2.63
2022-08-09T10:54:51.086Z,2.10
2022-08-09T10:57:23.816Z,2.00
2022-08-09T10:59:57.370Z,2.22
2022-08-09T11:03:13.786Z,2.20
2022-08-09T11:05:30.209Z,2.35
2022-08-09T11:08:30.082Z,2.35
2022-08-09T11:11:09.125Z,2.15
2022-08-09T11:13:53.942Z,2.05
2022-08-09T11:16:33.811Z,2.22
2022-08-09T11:19:09.605Z,2.30
2022-08-09T11:22:10.347Z,2.03
2022-08-09T11:25:09.866Z,2.00
2022-08-09T11:28:03.943Z,2.15
2022-08-09T11:30:38.595Z,1.90
2022-08-09T11:33:27.783Z,2.47
2022-08-09T11:35:57.645Z,2.45
2022-08-09T11:38:32.580Z,2.13
2022-08-09T11:41:04.144Z,2.10
2022-08-09T11:43:40.921Z,1.92
2022-08-09T11:46:11.147Z,2.10
2022-08-09T11:48:49.479Z,2.08
2022-08-09T11:52:48.757Z,1.80
2022-08-09T11:54:21.365Z,2.30
2022-08-09T11:57:12.604Z,2.05
2022-08-09T11:59:41.537Z,2.10
2022-08-09T12:02:34.674Z,2.22
2022-08-09T12:05:03.358Z,2.05
2022-08-09T12:07:42.259Z,1.80
2022-08-09T12:10:31.774Z,2.10
2022-08-09T12:13:03.386Z,2.10
2022-08-09T12:15:51.972Z,2.03
2022-08-09T12:18:29.577Z,2.15
2022-08-09T12:21:00.605Z,1.85
2022-08-09T12:23:47.422Z,1.70
2022-08-09T12:26:26.176Z,1.83
2022-08-09T12:29:00.101Z,2.20
2022-08-09T12:32:02.627Z,1.98
2022-08-09T12:34:37.724Z,1.92
2022-08-09T12:37:21.412Z,1.98
2022-08-09T12:40:03.046Z,1.98
2022-08-09T12:42:35.138Z,2.13
2022-08-09T12:45:32.693Z,1.88
2022-08-09T12:47:53.298Z,2.10
2022-08-09T12:50:24.914Z,1.67
2022-08-09T12:53:09.429Z,1.60
2022-08-09T12:56:11.562Z,1.55
2022-08-09T12:58:31.655Z,1.67
2022-08-09T13:01:04.506Z,2.13
2022-08-09T13:03:54.051Z,1.70
2022-08-09T13:06:34.245Z,1.95
2022-08-09T13:09:08.580Z,1.80
2022-08-09T13:11:39.524Z,1.80
2022-08-09T13:14:42.654Z,1.75
2022-08-09T13:17:04.407Z,1.80
2022-08-09T13:20:10.429Z,2.13
2022-08-09T13:22:37.624Z,1.77
2022-08-09T13:25:13.919Z,1.90
2022-08-09T13:27:54.724Z,2.20
2022-08-09T13:30:50.934Z,1.67
2022-08-09T13:33:22.774Z,1.90
2022-08-09T13:36:24.314Z,1.63
2022-08-09T13:38:57.336Z,1.90
2022-08-09T13:41:58.214Z,1.90
2022-08-09T13:44:17.643Z,1.80
2022-08-09T13:47:29.587Z,1.60
2022-08-09T13:49:39.689Z,1.73
2022-08-09T13:52:24.798Z,1.70
2022-08-09T13:55:00.139Z,1.60
2022-08-09T13:57:36.680Z,1.73
2022-08-09T14:00:12.449Z,1.73
2022-08-09T14:03:02.165Z,1.60
2022-08-09T14:05:56.991Z,1.83
2022-08-09T14:08:19.958Z,1.70
2022-08-09T14:10:52.968Z,1.55
2022-08-09T14:14:15.612Z,1.67
2022-08-09T14:16:13.898Z,1.40
2022-08-09T14:18:45.905Z,1.70
2022-08-09T14:21:18.733Z,1.50
2022-08-09T14:23:54.708Z,2.20
2022-08-09T14:26:31.463Z,1.58
2022-08-09T14:29:02.684Z,1.42
2022-08-09T14:31:49.749Z,1.55
2022-08-09T14:34:31.852Z,1.83
2022-08-09T14:37:02.680Z,1.70
2022-08-09T14:39:40.419Z,1.73
2022-08-09T14:42:30.950Z,1.80
2022-08-09T14:45:14.754Z,1.70
2022-08-09T14:47:57.017Z,1.75
2022-08-09T14:50:28.080Z,2.03
2022-08-09T14:52:56.744Z,1.60
2022-08-09T14:55:29.298Z,1.55
2022-08-09T14:58:04.558Z,1.58
2022-08-09T15:00:34.480Z,1.52
2022-08-09T15:03:05.451Z,1.92
2022-08-09T15:05:34.099Z,1.42
2022-08-09T15:08:05.656Z,2.10
2022-08-09T15:10:34.838Z,1.63
2022-08-09T15:13:05.798Z,1.90
2022-08-09T15:15:39.181Z,1.70
2022-08-09T15:18:14.339Z,1.58
2022-08-09T15:21:55.464Z,1.60
2022-08-09T15:24:03.643Z,1.50
2022-08-09T15:26:31.781Z,1.88
2022-08-09T15:29:04.621Z,1.90
2022-08-09T15:31:41.817Z,1.40
2022-08-09T15:34:34.199Z,1.92
2022-08-09T15:37:01.003Z,1.98
2022-08-09T15:39:34.530Z,1.60
2022-08-09T15:42:18.941Z,1.80
2022-08-09T15:44:49.355Z,1.70
2022-08-09T15:47:22.261Z,1.40
2022-08-09T15:50:00.686Z,1.73
2022-08-09T15:52:33.437Z,1.92
2022-08-09T15:55:02.260Z,1.58
2022-08-09T15:57:35.246Z,1.58
2022-08-09T16:00:09.653Z,1.60
2022-08-09T16:02:43.018Z,1.70
2022-08-09T16:05:22.868Z,1.75
2022-08-09T16:07:51.721Z,1.80
2022-08-09T16:10:54.756Z,1.52
2022-08-09T16:13:20.724Z,1.50
2022-08-09T16:16:10.255Z,1.83
2022-08-09T16:18:46.358Z,1.33
2022-08-09T16:21:16.902Z,1.58
2022-08-09T16:23:55.006Z,1.67
2022-08-09T16:26:35.004Z,1.67
2022-08-09T16:29:10.571Z,1.50
2022-08-09T16:32:20.020Z,1.65
2022-08-09T16:34:54.645Z,2.00
2022-08-09T16:37:21.565Z,1.80
2022-08-09T16:40:09.804Z,1.70
2022-08-09T16:42:39.023Z,1.67
2022-08-09T16:45:14.829Z,1.90
2022-08-09T16:48:40.515Z,1.75
2022-08-09T16:50:35.506Z,1.63
2022-08-09T16:53:08.982Z,1.80
2022-08-09T16:55:57.768Z,1.50
2022-08-09T16:58:28.950Z,1.63
2022-08-09T17:01:05.177Z,1.60
2022-08-09T17:03:35.263Z,1.50
2022-08-09T17:06:28.140Z,1.50
2022-08-09T17:09:03.248Z,1.90
2022-08-09T17:11:42.424Z,1.80
2022-08-09T17:14:25.643Z,1.90
2022-08-09T17:17:00.059Z,1.85
2022-08-09T17:20:04.969Z,1.60
2022-08-09T17:22:24.889Z,1.50
2022-08-09T17:25:03.553Z,1.60
2022-08-09T17:27:33.665Z,1.70
2022-08-09T17:30:06.537Z,1.77
2022-08-09T17:32:37.954Z,2.00
2022-08-09T17:35:12.344Z,2.05
2022-08-09T17:38:11.448Z,1.77
2022-08-09T17:40:32.077Z,1.70
2022-08-09T17:43:10.881Z,1.77
2022-08-09T17:46:04.145Z,1.85
2022-08-09T17:48:38.939Z,1.60
2022-08-09T17:51:18.296Z,1.70
2022-08-09T17:53:53.370Z,1.60
2022-08-09T17:56:27.501Z,1.70
2022-08-09T17:58:56.951Z,1.30
2022-08-09T18:01:25.630Z,1.65
2022-08-09T18:04:14.332Z,1.67
2022-08-09T18:06:54.479Z,1.85
2022-08-09T18:09:25.248Z,1.45
2022-08-09T18:12:15.288Z,1.60
2022-08-09T18:14:49.927Z,2.00
2022-08-09T18:17:27.686Z,1.77
2022-08-09T18:20:57.360Z,1.73
2022-08-09T18:23:05.463Z,1.40
2022-08-09T18:25:45.509Z,1.73
2022-08-09T18:30:34.624Z,1.98
2022-08-09T18:31:11.068Z,1.50
2022-08-09T18:33:40.199Z,1.77
2022-08-09T18:36:14.203Z,1.55
2022-08-09T18:39:00.980Z,1.40
2022-08-09T18:41:34.204Z,1.63
2022-08-09T18:44:12.984Z,1.60
2022-08-09T18:46:46.543Z,1.63
2022-08-09T18:49:20.254Z,1.58
2022-08-09T18:51:55.131Z,1.60
2022-08-09T18:54:29.558Z,1.40
2022-08-09T18:57:06.126Z,1.67
2022-08-09T18:59:37.409Z,1.33
2022-08-09T19:02:18.684Z,1.60
2022-08-09T19:05:04.176Z,1.35
2022-08-09T19:07:36.839Z,1.77
2022-08-09T19:10:14.247Z,1.67
2022-08-09T19:12:52.507Z,1.60
2022-08-09T19:15:24.285Z,1.60
2022-08-09T19:17:56.578Z,1.63
2022-08-09T19:20:33.840Z,2.10
2022-08-09T19:23:06.451Z,1.70
2022-08-09T19:26:01.462Z,1.70
2022-08-09T19:28:28.604Z,1.70
2022-08-09T19:30:57.633Z,1.93
2022-08-09T19:33:26.357Z,1.70
2022-08-09T19:35:57.021Z,1.60
2022-08-09T19:38:27.483Z,1.43
2022-08-09T19:41:00.467Z,1.43
2022-08-09T19:44:00.967Z,1.30
2022-08-09T19:46:34.210Z,1.80
2022-08-09T19:50:07.977Z,1.43
2022-08-09T19:51:55.474Z,1.57
2022-08-09T19:54:25.078Z,1.87
2022-08-09T19:56:55.273Z,1.80
2022-08-09T19:59:57.890Z,1.47
2022-08-09T20:03:23.969Z,1.50
2022-08-09T20:05:10.134Z,1.37
2022-08-09T20:07:59.097Z,1.70
2022-08-09T20:10:34.537Z,1.70
2022-08-09T20:13:08.168Z,1.40
2022-08-09T20:16:39.129Z,1.60
2022-08-09T20:18:28.133Z,1.60
2022-08-09T20:20:57.202Z,1.60
2022-08-09T20:23:39.395Z,1.57
2022-08-09T20:26:09.931Z,1.90
2022-08-09T20:28:48.578Z,2.00
2022-08-09T20:31:18.624Z,2.17
2022-08-09T20:33:52.539Z,1.77
2022-08-09T20:36:28.221Z,1.80
2022-08-09T20:39:28.994Z,1.40
2022-08-09T20:41:48.917Z,1.50
2022-08-09T20:44:26.465Z,1.50
2022-08-09T20:46:55.895Z,1.60
2022-08-09T20:49:27.399Z,1.40
2022-08-09T20:51:57.625Z,1.93
2022-08-09T20:54:29.198Z,1.63
2022-08-09T20:56:58.691Z,1.40
2022-08-09T21:00:20.394Z,1.73
2022-08-09T21:02:18.559Z,1.70
2022-08-09T21:05:52.349Z,1.40
2022-08-09T21:07:40.424Z,1.50
2022-08-09T21:10:13.120Z,1.90
2022-08-09T21:15:34.479Z,1.30
2022-08-09T21:18:23.475Z,1.70
2022-08-09T21:20:54.574Z,1.70
2022-08-09T21:23:26.573Z,1.67
2022-08-09T21:26:15.623Z,1.70
2022-08-09T21:28:55.747Z,1.73
2022-08-09T21:31:49.059Z,1.60
2022-08-09T21:34:21.129Z,1.37
2022-08-09T21:36:57.696Z,1.67
2022-08-09T21:39:28.219Z,1.60
2022-08-09T21:42:11.538Z,1.70
2022-08-09T21:44:42.647Z,1.37
2022-08-09T21:47:18.175Z,1.60
2022-08-09T21:49:48.045Z,1.50
2022-08-09T21:52:20.262Z,1.20
2022-08-09T21:54:50.706Z,1.40
2022-08-09T21:57:38.439Z,1.43
2022-08-09T22:00:16.798Z,1.47
2022-08-09T22:02:51.289Z,1.60
2022-08-09T22:05:35.581Z,1.40
2022-08-09T22:08:13.634Z,1.30
2022-08-09T22:11:04.849Z,1.47
2022-08-09T22:13:34.867Z,1.50
2022-08-09T22:16:04.757Z,1.40
2022-08-09T22:18:53.262Z,1.40
2022-08-09T22:21:24.440Z,1.60
2022-08-09T22:23:59.464Z,1.90
2022-08-09T22:26:35.193Z,1.60
2022-08-09T22:29:09.480Z,1.60
2022-08-09T22:31:50.530Z,1.30
2022-08-09T22:34:27.808Z,1.47
2022-08-09T22:36:57.193Z,1.23
2022-08-09T22:39:55.978Z,1.30
2022-08-09T22:42:22.486Z,1.30
2022-08-09T22:48:04.610Z,1.40
2022-08-09T22:48:10.861Z,1.37
2022-08-09T22:50:32.308Z,1.40
2022-08-09T22:53:03.477Z,1.40
2022-08-09T22:56:06.483Z,1.50
2022-08-09T22:58:32.485Z,1.43
2022-08-09T23:01:03.323Z,1.40
2022-08-09T23:04:03.576Z,1.60
2022-08-09T23:06:35.753Z,1.50
2022-08-09T23:09:05.188Z,1.60
2022-08-09T23:11:33.766Z,1.53
2022-08-09T23:14:03.247Z,1.70
2022-08-09T23:16:33.197Z,1.90
2022-08-09T23:19:01.792Z,1.83
2022-08-09T23:21:35.127Z,1.40
2022-08-09T23:24:07.549Z,1.63
2022-08-09T23:26:36.673Z,1.53
2022-08-09T23:29:05.810Z,1.83
2022-08-09T23:31:34.419Z,1.97
2022-08-09T23:34:03.707Z,1.77
2022-08-09T23:36:34.467Z,2.00
2022-08-09T23:39:03.133Z,2.07
2022-08-09T23:41:31.773Z,2.00
2022-08-09T23:44:00.589Z,1.90
2022-08-09T23:46:29.574Z,1.60
2022-08-09T23:48:58.476Z,1.80
2022-08-09T23:51:27.400Z,1.83
2022-08-09T23:54:03.306Z,1.97
2022-08-09T23:56:52.119Z,1.80
2022-08-09T23:59:21.489Z,1.83
